Flight Track Log - Related Links

Times and Time Zones

All times are in EDT time to prevent confusion due to time zone crossing. See the SWA29 flight status page for this flight to view local times or setup timezone preferences in your user account.


Time Position Orientation Groundspeed Altitude Reporting Facility
EDT Latitude Longitude Course Direction KTS MPH feet Rate Location/Type
Sun 06:52:31 PM 33.6333 -84.3833 107° East 182 209 2,400  Level Atlanta TRACON
Sun 06:53:31 PM 33.6167 -84.3167 107° East 236 272 4,400 2,017 Climbing Atlanta TRACON
Sun 06:54:30 PM 33.5500 -84.2833 157° South 280 322 6,400 2,431 Climbing Atlanta TRACON
Sun 06:56:46 PM 33.3661 -84.2750 178° South 314 361 12,300 2,724 Climbing Atlanta Center
Sun 06:57:46 PM 33.2806 -84.2525 168° South 345 397 15,300 3,050 Climbing Atlanta Center
Sun 06:58:46 PM 33.1867 -84.2275 167° South 350 403 18,400 2,450 Climbing Atlanta Center
Sun 06:59:46 PM 33.0867 -84.2050 169° South 355 409 20,200 1,950 Climbing Atlanta Center
Sun 07:00:46 PM 32.9758 -84.1675 164° South 365 420 22,300 1,950 Climbing Atlanta Center
Sun 07:01:46 PM 32.8694 -84.1253 162° South 384 442 24,100 1,850 Climbing Atlanta Center
Sun 07:02:46 PM 32.7653 -84.0783 159° South 395 455 26,000 1,550 Climbing Atlanta Center
Sun 07:03:46 PM 32.6567 -84.0339 161° South 401 461 27,200 1,400 Climbing Atlanta Center
Sun 07:04:46 PM 32.5461 -83.9894 161° South 406 467 28,800 2,150 Climbing Atlanta Center
Sun 07:05:46 PM 32.4394 -83.9453 161° South 411 473 31,500 2,250 Climbing Atlanta Center
Sun 07:06:46 PM 32.3414 -83.9061 161° South 398 458 33,300 1,213 Climbing Atlanta Center
Sun 07:08:54 PM 32.1381 -83.8225 161° South 389 448 35,300 862 Climbing Jacksonville Center
Sun 07:09:54 PM 32.0403 -83.7797 160° South 383 441 36,000 750 Climbing Jacksonville Center
Sun 07:10:54 PM 31.9361 -83.7397 162° South 383 441 36,800 450 Climbing Jacksonville Center
Sun 07:11:54 PM 31.8342 -83.6972 160° South 383 441 36,900 100 Climbing Jacksonville Center
Sun 07:12:54 PM 31.7278 -83.6497 159° South 389 448 37,000 50 Climbing Jacksonville Center
Sun 07:13:54 PM 31.6236 -83.6122 163° South 389 448 37,000  Level Jacksonville Center
Sun 07:14:54 PM 31.5050 -83.5675 162° South 401 461 37,000  Level Jacksonville Center
Sun 07:15:54 PM 31.3967 -83.5231 161° South 406 467 37,000  Level Jacksonville Center
Sun 07:16:54 PM 31.2883 -83.4808 162° South 406 467 37,000  Level Jacksonville Center
Sun 07:17:54 PM 31.1819 -83.4389 161° South 401 461 37,000  Level Jacksonville Center
Sun 07:18:54 PM 31.0714 -83.3947 161° South 406 467 37,000  Level Jacksonville Center
Sun 07:19:54 PM 30.9589 -83.3506 161° South 417 480 37,000  Level Jacksonville Center
Sun 07:20:54 PM 30.8442 -83.3039 161° South 428 493 37,000  Level Jacksonville Center
Sun 07:21:54 PM 30.7419 -83.2600 160° South 428 493 37,000  Level Jacksonville Center
Sun 07:22:54 PM 30.6253 -83.2017 157° South 439 505 37,000  Level Jacksonville Center
Sun 07:23:54 PM 30.5106 -83.1433 156° South 446 513 37,000  Level Jacksonville Center
Sun 07:24:54 PM 30.3978 -83.0853 156° South 451 519 37,000  Level Jacksonville Center
Sun 07:25:54 PM 30.2831 -83.0272 156° South 451 519 37,000  Level Jacksonville Center
Sun 07:26:54 PM 30.1706 -82.9742 158° South 451 519 37,000  Level Jacksonville Center
Sun 07:27:54 PM 30.0578 -82.9167 156° South 446 513 37,000  Level Jacksonville Center
Sun 07:28:54 PM 29.9428 -82.8639 158° South 446 513 37,000  Level Jacksonville Center
Sun 07:29:54 PM 29.8303 -82.8089 157° South 446 513 37,000  Level Jacksonville Center
Sun 07:30:54 PM 29.7153 -82.7514 157° South 446 513 37,000  Level Jacksonville Center
Sun 07:31:54 PM 29.6067 -82.6992 157° South 440 506 37,000  Level Jacksonville Center
Sun 07:32:54 PM 29.4769 -82.6325 156° South 446 513 37,000  Level Jacksonville Center
Sun 07:33:54 PM 29.3664 -82.5781 157° South 446 513 37,000  Level Jacksonville Center
Sun 07:34:54 PM 29.2514 -82.5236 158° South 446 513 37,000  Level Jacksonville Center
Sun 07:35:54 PM 29.1383 -82.4669 156° South 446 513 37,000  Level Jacksonville Center
Sun 07:36:54 PM 29.0194 -82.4342 166° South 440 506 37,000  Level Jacksonville Center
Sun 07:37:54 PM 28.9003 -82.4206 174° South 434 499 37,000  Level Jacksonville Center
Sun 07:38:54 PM 28.7814 -82.4047 173° South 434 499 37,000  Level Jacksonville Center
Sun 07:39:54 PM 28.6747 -82.3933 175° South 429 494 37,000  Level Jacksonville Center
Sun 07:40:54 PM 28.5558 -82.3750 172° South 429 494 37,000  Level Jacksonville Center
Sun 07:41:54 PM 28.4367 -82.3614 174° South 429 494 37,000  Level Jacksonville Center
Sun 07:43:45 PM 28.2006 -82.3308 173° South 423 487 37,000 -246 Level Miami Center
Sun 07:44:45 PM 28.0803 -82.3133 173° South 429 494 36,300 -1,050 Descending Miami Center
Sun 07:45:45 PM 27.9581 -82.2864 169° South 442 509 34,900 -950 Descending Miami Center
Sun 07:46:45 PM 27.8469 -82.2458 162° South 442 509 34,400 -750 Descending Miami Center
Sun 07:47:45 PM 27.7339 -82.2053 162° South 423 487 33,400 -950 Descending Miami Center
Sun 07:48:45 PM 27.6225 -82.1650 162° South 423 487 32,500 -850 Descending Miami Center
Sun 07:49:45 PM 27.5050 -82.1267 164° South 431 496 31,700 -850 Descending Miami Center
Sun 07:50:45 PM 27.3978 -82.0892 163° South 437 503 30,800 -1,650 Descending Miami Center
Sun 07:51:45 PM 27.2783 -82.0486 163° South 445 512 28,400 -2,600 Descending Miami Center
Sun 07:52:45 PM 27.1503 -82.0078 164° South 445 512 25,600 -2,200 Descending Miami Center
Sun 07:53:45 PM 27.0392 -81.9681 162° South 433 498 24,000 -800 Descending Miami Center
Sun 07:54:45 PM 26.9442 -81.9383 164° South 413 475 24,000 -100 Level Miami Center
Sun 07:55:45 PM 26.8547 -81.8669 145° Southeast 388 447 23,800 -1,400 Descending Miami Center
Sun 07:56:45 PM 26.7703 -81.7772 137° Southeast 401 461 21,200 -2,400 Descending Miami Center
Sun 07:57:45 PM 26.6942 -81.6786 131° Southeast 412 474 19,000 -1,100 Descending Miami Center
Sun 07:58:45 PM 26.7092 -81.5375 83° East 402 463 19,000  Level Miami Center
Sun 07:59:45 PM 26.7400 -81.4225 73° East 411 473 19,000 -1,150 Level Miami Center
Sun 08:00:45 PM 26.7714 -81.2842 76° East 417 480 16,700 -2,250 Descending Miami Center
Sun 08:01:45 PM 26.7978 -81.1689 76° East 417 480 14,500 -2,200 Descending Miami Center
Sun 08:02:45 PM 26.8225 -81.0372 78° East 407 468 12,300 -2,100 Descending Miami Center
Sun 08:03:45 PM 26.8319 -80.9306 84° East 389 448 10,300 -1,200 Descending Miami Center
Sun 08:04:45 PM 26.8264 -80.8233 93° East 358 412 9,900 -400 Descending Miami Center
Sun 08:05:45 PM 26.8019 -80.7200 105° East 318 366 9,500 -900 Descending Miami Center
Sun 08:06:45 PM 26.7836 -80.6286 103° East 310 357 8,100 -1,400 Descending Miami Center
Sun 08:07:45 PM 26.7586 -80.5489 109° East 298 343 6,700 -1,500 Descending Miami Center
Sun 08:08:45 PM 26.7381 -80.4506 103° East 292 336 5,100 -1,400 Descending Miami Center
Sun 08:09:45 PM 26.7211 -80.3731 104° East 287 330 3,900 -1,050 Descending Miami Center
Sun 08:10:45 PM 26.7000 -80.2889 106° East 265 305 3,000 -950 Descending Miami Center
Sun 08:11:45 PM 26.6892 -80.2258 101° East 233 268 2,000 -850 Descending Miami Center
Sun 08:12:45 PM 26.6839 -80.1769 97° East 184 212 1,300 -700 Descending Miami Center
Sun 08:14:00 PM 26.6832 -80.0956 50° Northeast  Level Estimated

Login

Don't have an account? Register now (free) for customized features, flight alerts, and more!